Time;durP1;ratioP1;P1;durP2;ratioP2;P2;SDS_P1;SDS_P2;PMS_P1;PMS_P2;Temp;Humidity;BMP_temperature;BMP_pressure;BME280_temperature;BME280_humidity;BME280_pressure;Samples;Min_cycle;Max_cycle;Signal;HPM_P1;HPM_P2
2022/03/22 00:00:49;;;;;;;51.65;28.15;;;;;;;7.64;77.29;102997.50;5021604;28;20034;-79
2022/03/22 00:03:15;;;;;;;50.90;30.00;;;;;;;7.66;77.23;103004.59;5022057;28;20591;-79
2022/03/22 00:05:42;;;;;;;51.40;29.20;;;;;;;7.68;77.57;103001.22;5020931;28;20018;-79
2022/03/22 00:08:11;;;;;;;51.78;30.77;;;;;;;7.68;77.15;103002.09;5021886;28;20057;-79
2022/03/22 00:10:38;;;;;;;51.17;29.08;;;;;;;7.66;76.75;102999.41;5021735;28;20026;-79
2022/03/22 00:13:05;;;;;;;49.50;28.27;;;;;;;7.62;77.08;103005.16;5021739;28;20024;-79
2022/03/22 00:15:31;;;;;;;52.67;30.65;;;;;;;7.63;76.97;103006.06;5016252;28;20048;-79
2022/03/22 00:17:56;;;;;;;54.10;31.00;;;;;;;7.61;77.01;103000.75;5019907;28;20025;-84
2022/03/22 00:20:23;;;;;;;51.25;29.20;;;;;;;7.60;76.38;103001.56;5021414;28;20014;-83
2022/03/22 00:22:49;;;;;;;51.22;29.63;;;;;;;7.55;76.47;103002.94;5021899;28;20032;-84
2022/03/22 00:25:16;;;;;;;51.03;29.73;;;;;;;7.51;76.34;102998.31;5021279;28;20050;-85
2022/03/22 00:27:52;;;;;;;50.25;29.92;;;;;;;7.48;76.80;103009.38;5021653;28;20046;-84
2022/03/22 00:30:21;;;;;;;51.03;29.55;;;;;;;7.46;76.88;103008.38;5020757;28;20010;-84
2022/03/22 00:32:47;;;;;;;49.80;26.45;;;;;;;7.43;75.93;103010.75;5021881;28;20179;-85
2022/03/22 00:35:13;;;;;;;48.25;27.15;;;;;;;7.34;76.06;103009.19;5021354;28;20049;-84
2022/03/22 00:37:42;;;;;;;49.45;28.42;;;;;;;7.25;76.99;103014.59;5021570;28;20033;-84
2022/03/22 00:40:16;;;;;;;50.50;27.88;;;;;;;7.18;76.88;103021.03;5020108;28;20022;-84
2022/03/22 00:42:41;;;;;;;47.65;27.08;;;;;;;7.13;77.28;103025.88;5020426;28;20323;-84
2022/03/22 00:45:07;;;;;;;48.38;28.92;;;;;;;7.11;77.66;103023.97;5019976;28;20088;-85
2022/03/22 00:47:32;;;;;;;46.38;28.17;;;;;;;7.10;78.02;103022.19;5019999;28;20026;-79
2022/03/22 00:49:58;;;;;;;49.05;28.40;;;;;;;7.10;77.82;103020.47;5021274;28;20068;-79
2022/03/22 00:52:26;;;;;;;52.47;28.13;;;;;;;7.12;77.62;103013.69;5021682;28;20264;-79
2022/03/22 00:54:52;;;;;;;50.22;28.58;;;;;;;7.16;78.26;103019.13;5021580;28;20086;-79
2022/03/22 00:57:18;;;;;;;50.83;28.85;;;;;;;7.13;78.51;103015.50;5023361;28;20068;-79
2022/03/22 01:00:01;;;;;;;52.20;28.83;;;;;;;7.13;77.95;103015.50;5021090;28;20025;-79
2022/03/22 01:02:27;;;;;;;51.90;28.55;;;;;;;7.13;77.96;103014.63;5023452;28;20056;-79
2022/03/22 01:04:53;;;;;;;51.83;28.50;;;;;;;7.12;77.48;103018.00;5022439;28;20300;-79
2022/03/22 01:07:18;;;;;;;50.50;29.20;;;;;;;7.11;77.51;103023.97;5023562;28;20021;-79
2022/03/22 01:09:43;;;;;;;47.85;26.33;;;;;;;7.07;76.45;103022.84;5023845;28;20030;-79
2022/03/22 01:12:09;;;;;;;45.55;26.70;;;;;;;6.99;76.40;103018.78;5024711;28;20048;-79
2022/03/22 01:14:34;;;;;;;45.35;27.30;;;;;;;6.98;77.26;103027.38;5024448;28;20021;-79
2022/03/22 01:16:59;;;;;;;47.03;26.75;;;;;;;6.95;77.67;103025.44;5024254;28;20022;-79
2022/03/22 01:19:25;;;;;;;47.80;27.23;;;;;;;6.95;78.08;103027.13;5023571;28;20014;-79
2022/03/22 01:21:51;;;;;;;47.78;27.98;;;;;;;6.95;78.04;103019.34;5023079;28;20021;-79
2022/03/22 01:24:17;;;;;;;49.30;27.15;;;;;;;6.94;78.38;103028.81;5023408;28;20013;-79
2022/03/22 01:26:42;;;;;;;47.40;27.75;;;;;;;7.00;79.84;103025.78;5024397;28;20092;-79
2022/03/22 01:29:10;;;;;;;47.70;27.63;;;;;;;7.06;79.72;103020.16;5024151;28;20189;-79
2022/03/22 01:31:35;;;;;;;45.08;26.45;;;;;;;7.12;79.36;103029.25;5024099;28;20041;-79
2022/03/22 01:34:00;;;;;;;43.35;25.63;;;;;;;7.19;78.78;103022.84;5023248;28;20036;-79
2022/03/22 01:36:29;;;;;;;43.00;24.90;;;;;;;7.20;77.75;103019.47;5023403;28;20076;-79
2022/03/22 01:38:54;;;;;;;46.78;25.63;;;;;;;7.20;78.06;103015.94;5023068;28;20017;-79
2022/03/22 01:41:19;;;;;;;46.40;24.33;;;;;;;7.27;78.98;103018.19;5028875;28;20033;-79
2022/03/22 01:43:44;;;;;;;43.10;25.35;;;;;;;7.31;78.78;103015.03;5024296;28;20291;-79
2022/03/22 01:46:12;;;;;;;41.22;24.02;;;;;;;7.34;77.99;103019.56;5024015;28;20044;-79
2022/03/22 01:48:38;;;;;;;44.45;25.02;;;;;;;7.36;77.91;103017.97;5023747;28;20034;-79
2022/03/22 01:51:03;;;;;;;45.35;24.08;;;;;;;7.35;77.99;103024.84;5023839;28;20076;-79
2022/03/22 01:53:30;;;;;;;40.75;24.90;;;;;;;7.39;78.14;103015.63;5024249;28;20048;-79
2022/03/22 01:55:57;;;;;;;41.25;24.60;;;;;;;7.41;78.01;103017.50;5023971;28;20044;-79
2022/03/22 01:58:24;;;;;;;41.20;24.20;;;;;;;7.41;77.59;103022.69;5024138;28;20190;-79
2022/03/22 02:05:51;;;;;;;38.40;23.02;;;;;;;7.40;76.93;103017.38;5024065;28;20104;-79
2022/03/22 02:06:32;;;;;;;42.13;24.23;;;;;;;7.36;77.43;103012.78;5000819;28;20033;-79
2022/03/22 02:08:58;;;;;;;39.20;24.58;;;;;;;7.39;77.71;103013.03;5022797;28;20030;-79
2022/03/22 02:11:24;;;;;;;40.53;23.80;;;;;;;7.39;77.55;103003.53;5023928;28;20188;-79
2022/03/22 02:13:50;;;;;;;41.83;24.33;;;;;;;7.39;77.63;103006.13;5022187;28;20017;-79
2022/03/22 02:16:15;;;;;;;43.75;24.83;;;;;;;7.39;77.69;103002.66;5021867;28;20021;-79
2022/03/22 02:18:42;;;;;;;40.22;24.02;;;;;;;7.41;77.51;102999.34;5022995;28;20057;-79
2022/03/22 02:21:09;;;;;;;40.45;24.17;;;;;;;7.40;76.90;103002.75;5023528;28;20036;-79
2022/03/22 02:23:52;;;;;;;43.17;23.25;;;;;;;7.37;76.03;103001.63;5023304;28;20324;-79
2022/03/22 02:26:19;;;;;;;37.67;22.80;;;;;;;7.28;76.13;103002.75;5023580;28;20064;-83
2022/03/22 02:28:44;;;;;;;40.63;23.25;;;;;;;7.22;76.00;102998.84;5030380;28;20032;-84
2022/03/22 02:31:10;;;;;;;39.90;24.05;;;;;;;7.19;76.06;103003.81;5023867;28;20022;-84
2022/03/22 02:33:39;;;;;;;43.90;23.48;;;;;;;7.15;76.98;102994.88;5023509;28;20073;-84
2022/03/22 02:36:05;;;;;;;41.72;23.23;;;;;;;7.16;77.32;102990.63;5022299;28;20029;-84
2022/03/22 02:38:31;;;;;;;41.67;23.48;;;;;;;7.14;77.58;103001.78;5022897;28;20065;-84
2022/03/22 02:40:56;;;;;;;38.95;23.50;;;;;;;7.12;77.14;102995.56;5023288;28;20272;-84
2022/03/22 02:43:21;;;;;;;39.53;23.15;;;;;;;7.10;76.90;103002.34;5023045;28;20180;-84
2022/03/22 02:45:47;;;;;;;34.20;21.33;;;;;;;7.04;75.69;102998.38;5022887;28;20057;-83
2022/03/22 02:48:12;;;;;;;37.53;21.80;;;;;;;6.95;75.80;103004.72;5021600;28;20306;-84
2022/03/22 02:50:37;;;;;;;37.55;22.65;;;;;;;6.88;75.87;103004.13;5021672;28;20026;-84
2022/03/22 02:53:03;;;;;;;37.88;23.08;;;;;;;6.79;76.31;103000.09;5022729;28;20081;-84
2022/03/22 02:55:28;;;;;;;35.83;21.75;;;;;;;6.74;76.46;103009.22;5021236;28;20092;-84
2022/03/22 02:57:53;;;;;;;35.72;21.35;;;;;;;6.71;76.71;103013.28;5022826;28;20029;-84
2022/03/22 03:00:19;;;;;;;40.85;22.30;;;;;;;6.64;76.52;103011.91;5022643;28;20097;-83
2022/03/22 03:02:49;;;;;;;37.47;22.20;;;;;;;6.59;76.75;103010.69;5022704;28;20026;-84
2022/03/22 03:05:15;;;;;;;37.47;21.05;;;;;;;6.56;77.07;103011.34;5022543;28;20304;-84
2022/03/22 03:07:40;;;;;;;39.13;21.92;;;;;;;6.55;77.03;103011.22;5022617;28;20053;-84
2022/03/22 03:10:07;;;;;;;38.38;21.80;;;;;;;6.54;76.98;103002.53;5022818;28;20044;-84
2022/03/22 03:12:33;;;;;;;38.05;22.63;;;;;;;6.54;77.25;103015.50;5021326;28;20053;-84
2022/03/22 03:14:59;;;;;;;37.58;22.65;;;;;;;6.52;77.04;103011.00;5021846;28;20291;-84
2022/03/22 03:17:24;;;;;;;38.85;21.50;;;;;;;6.50;77.17;103005.69;5022458;28;20096;-84
2022/03/22 03:19:50;;;;;;;37.08;22.95;;;;;;;6.48;77.48;103007.25;5021183;28;20025;-84
2022/03/22 03:22:15;;;;;;;39.20;21.73;;;;;;;6.48;77.46;103008.97;5022365;28;20273;-84
2022/03/22 03:24:40;;;;;;;39.00;22.23;;;;;;;6.46;77.76;103008.84;5022098;28;20026;-84
2022/03/22 03:27:05;;;;;;;40.20;22.40;;;;;;;6.46;77.96;103016.63;5022317;28;20060;-83
2022/03/22 03:29:31;;;;;;;40.28;22.85;;;;;;;6.45;77.70;103012.22;5024352;28;20124;-84
2022/03/22 03:31:56;;;;;;;38.00;22.48;;;;;;;6.42;77.42;103015.47;5022567;28;20033;-84
2022/03/22 03:34:22;;;;;;;39.03;21.63;;;;;;;6.40;77.82;103014.47;5022035;28;20064;-84
2022/03/22 03:36:48;;;;;;;37.58;22.48;;;;;;;6.37;77.52;103022.00;5022444;28;20095;-84
2022/03/22 03:39:13;;;;;;;37.95;21.55;;;;;;;6.33;78.05;103026.81;5021991;28;20224;-84
2022/03/22 03:41:54;;;;;;;36.30;21.85;;;;;;;6.30;77.69;103024.91;5022479;28;20045;-84
2022/03/22 03:47:05;;;;;;;37.95;21.85;;;;;;;6.18;78.27;103027.44;5020386;28;20076;-83
2022/03/22 03:49:34;;;;;;;38.15;21.58;;;;;;;6.13;78.83;103028.78;5021732;28;20034;-83
2022/03/22 03:52:00;;;;;;;40.50;22.67;;;;;;;6.12;78.29;103031.25;5022471;28;20044;-84
2022/03/22 03:54:25;;;;;;;37.65;21.73;;;;;;;6.11;79.33;103032.94;5021491;28;20276;-84
2022/03/22 03:56:50;;;;;;;37.10;20.98;;;;;;;6.14;78.86;103032.28;5022370;28;20172;-83
2022/03/22 03:59:15;;;;;;;36.38;21.98;;;;;;;6.13;78.44;103035.66;5021667;28;20030;-84
2022/03/22 04:01:44;;;;;;;37.20;21.05;;;;;;;6.08;78.35;103033.63;5021815;28;20240;-83
2022/03/22 04:04:10;;;;;;;36.63;21.48;;;;;;;6.06;78.93;103039.47;5021677;28;20026;-83
2022/03/22 04:06:35;;;;;;;34.70;20.70;;;;;;;6.03;78.79;103031.47;5022317;28;20336;-83
2022/03/22 04:09:00;;;;;;;32.60;20.67;;;;;;;6.03;78.85;103037.53;5021412;28;20036;-84
2022/03/22 04:11:25;;;;;;;33.95;21.50;;;;;;;6.04;79.24;103038.41;5022000;28;20025;-83
2022/03/22 04:13:51;;;;;;;37.78;21.10;;;;;;;6.05;80.27;103038.56;5022379;28;20029;-84
2022/03/22 04:16:16;;;;;;;36.28;21.42;;;;;;;6.09;80.36;103042.28;5020761;28;20069;-83
2022/03/22 04:18:41;;;;;;;35.22;20.70;;;;;;;6.13;80.20;103040.84;5020876;28;20096;-83
2022/03/22 04:21:07;;;;;;;37.50;21.45;;;;;;;6.18;80.34;103040.38;5021730;28;20287;-84
2022/03/22 04:23:32;;;;;;;36.20;20.63;;;;;;;6.22;80.03;103044.13;5021672;28;20072;-83
2022/03/22 04:25:58;;;;;;;43.63;21.15;;;;;;;6.24;79.49;103042.53;5021530;28;20189;-83
2022/03/22 04:33:54;;;;;;;34.38;19.48;;;;;;;6.17;78.07;103043.78;4991578;28;20053;-79
2022/03/22 04:36:20;;;;;;;36.13;19.48;;;;;;;6.08;77.94;103043.03;5025904;28;20037;-79
2022/03/22 04:38:45;;;;;;;34.85;20.35;;;;;;;6.03;77.60;103044.41;5025751;28;20324;-79
2022/03/22 04:41:11;;;;;;;34.67;20.40;;;;;;;5.96;77.49;103036.91;5022205;28;20037;-79
2022/03/22 04:43:37;;;;;;;32.72;19.70;;;;;;;5.88;78.27;103044.97;5025131;28;20101;-79
2022/03/22 04:46:02;;;;;;;35.20;21.08;;;;;;;5.85;78.92;103043.81;5025062;28;20042;-79
2022/03/22 04:48:29;;;;;;;36.78;21.02;;;;;;;5.84;78.73;103044.63;5024448;28;20026;-79
2022/03/22 04:56:43;;;;;;;37.03;20.92;;;;;;;5.83;78.76;103050.56;5025229;28;20033;-79
2022/03/22 04:59:09;;;;;;;32.78;19.10;;;;;;;5.61;78.21;103054.03;5025113;28;20032;-79
2022/03/22 05:01:34;;;;;;;36.05;20.98;;;;;;;5.60;78.37;103067.75;5025235;28;20193;-79
2022/03/22 05:03:59;;;;;;;35.55;20.00;;;;;;;5.58;78.67;103061.56;5026649;28;20025;-79
2022/03/22 05:06:28;;;;;;;38.47;20.38;;;;;;;5.58;78.98;103058.97;5029801;28;20026;-79
2022/03/22 05:08:54;;;;;;;35.20;20.30;;;;;;;5.58;79.07;103061.56;5024377;28;20332;-79
2022/03/22 05:11:22;;;;;;;35.53;20.27;;;;;;;5.57;79.08;103067.50;5025049;28;20077;-79
2022/03/22 05:13:48;;;;;;;35.83;20.77;;;;;;;5.56;79.25;103061.44;5024848;28;20034;-79
2022/03/22 05:16:17;;;;;;;35.78;20.00;;;;;;;5.57;78.87;103065.81;5023113;28;20053;-79
2022/03/22 05:18:42;;;;;;;38.22;21.27;;;;;;;5.56;78.77;103071.78;5022606;28;20322;-79
2022/03/22 05:21:07;;;;;;;38.17;20.23;;;;;;;5.57;78.93;103064.91;5024665;28;20034;-79
2022/03/22 05:23:34;;;;;;;36.92;20.33;;;;;;;5.57;78.67;103070.97;5024717;28;20046;-79
2022/03/22 05:25:59;;;;;;;33.33;19.90;;;;;;;5.56;78.69;103070.84;5024372;28;20065;-79
2022/03/22 05:28:24;;;;;;;35.60;19.90;;;;;;;5.54;79.01;103077.59;5024383;28;20221;-79
2022/03/22 05:30:50;;;;;;;35.40;20.45;;;;;;;5.51;79.09;103077.34;5024545;28;20056;-79
2022/03/22 05:33:15;;;;;;;35.20;20.08;;;;;;;5.49;79.15;103085.00;5023546;28;20185;-79
2022/03/22 05:35:40;;;;;;;36.08;21.13;;;;;;;5.49;79.01;103079.81;5023245;28;20030;-79
2022/03/22 05:38:06;;;;;;;35.58;20.70;;;;;;;5.49;79.35;103090.16;5024244;28;20088;-79
2022/03/22 05:40:31;;;;;;;36.30;21.02;;;;;;;5.47;79.50;103085.66;5024326;28;20391;-79
2022/03/22 05:42:57;;;;;;;40.78;20.60;;;;;;;5.46;79.58;103086.41;5022813;28;20079;-79
2022/03/22 05:45:23;;;;;;;38.03;21.15;;;;;;;5.47;79.46;103090.81;5024794;28;20265;-79
2022/03/22 05:47:50;;;;;;;36.10;20.45;;;;;;;5.46;79.36;103089.00;5024056;28;20286;-79
2022/03/22 05:50:15;;;;;;;39.10;21.73;;;;;;;5.46;79.57;103089.94;5023989;28;20037;-79
2022/03/22 05:52:47;;;;;;;39.05;21.08;;;;;;;5.47;79.60;103090.81;5024009;28;20049;-79
2022/03/22 05:55:13;;;;;;;35.97;20.65;;;;;;;5.46;79.77;103087.34;5024012;28;20032;-79
2022/03/22 05:57:39;;;;;;;39.75;20.38;;;;;;;5.50;79.93;103085.88;5023885;28;20025;-79
2022/03/22 06:00:06;;;;;;;40.65;21.90;;;;;;;5.51;79.38;103090.28;5023371;28;20026;-79
2022/03/22 06:02:36;;;;;;;37.47;21.35;;;;;;;5.53;79.58;103087.06;5022568;28;20034;-79
2022/03/22 06:05:02;;;;;;;36.33;20.27;;;;;;;5.54;79.38;103087.94;5023033;28;20014;-79
2022/03/22 06:07:27;;;;;;;39.17;21.08;;;;;;;5.58;79.46;103095.19;5022190;28;20295;-79
2022/03/22 06:09:52;;;;;;;40.35;21.63;;;;;;;5.63;79.48;103092.94;5023436;28;20211;-79
2022/03/22 06:12:19;;;;;;;37.67;21.75;;;;;;;5.66;79.36;103099.28;5022777;28;20037;-79
2022/03/22 06:14:45;;;;;;;39.20;22.30;;;;;;;5.69;80.00;103099.53;5022040;28;20018;-79
2022/03/22 06:17:10;;;;;;;39.05;22.40;;;;;;;5.74;79.91;103099.88;5022375;28;20080;-79
2022/03/22 06:19:35;;;;;;;35.58;21.38;;;;;;;5.77;79.50;103101.81;5021645;28;20063;-79
2022/03/22 06:22:01;;;;;;;41.92;22.30;;;;;;;5.77;79.95;103104.41;5023221;28;20025;-79
2022/03/22 06:24:26;;;;;;;41.53;22.63;;;;;;;5.80;80.35;103102.97;5023445;28;20086;-79
2022/03/22 06:26:51;;;;;;;39.50;21.27;;;;;;;5.85;80.32;103104.25;5015796;28;20041;-79
2022/03/22 06:29:17;;;;;;;38.65;21.25;;;;;;;5.91;79.88;103096.97;5022812;28;20314;-79
2022/03/22 06:31:44;;;;;;;42.85;23.08;;;;;;;5.97;80.20;103104.34;5023463;28;20043;-79
2022/03/22 06:34:09;;;;;;;41.47;22.45;;;;;;;6.01;80.26;103108.97;5023724;28;20053;-79
2022/03/22 06:36:34;;;;;;;41.00;21.83;;;;;;;6.05;79.96;103105.84;5023203;28;20290;-79
2022/03/22 06:38:59;;;;;;;40.45;22.00;;;;;;;6.08;80.29;103100.00;5023359;28;20032;-79
2022/03/22 06:41:25;;;;;;;43.20;22.70;;;;;;;6.14;80.10;103113.44;5023161;28;20342;-79
2022/03/22 06:43:50;;;;;;;40.63;23.48;;;;;;;6.20;80.21;103105.22;5023269;28;20026;-79
2022/03/22 06:46:15;;;;;;;44.58;23.17;;;;;;;6.28;80.16;103101.53;5022836;28;20068;-79
2022/03/22 06:48:42;;;;;;;42.45;23.52;;;;;;;6.39;80.23;103107.56;5021790;28;20092;-79
2022/03/22 06:51:07;;;;;;;42.35;22.63;;;;;;;6.56;79.97;103119.22;5021853;28;20113;-79
2022/03/22 06:53:33;;;;;;;43.10;24.08;;;;;;;6.92;79.17;103115.00;5022673;28;20283;-79
2022/03/22 06:55:58;;;;;;;41.58;23.55;;;;;;;7.34;77.87;103118.09;5023062;28;20245;-79
2022/03/22 06:58:25;;;;;;;45.17;23.63;;;;;;;7.69;76.73;103118.09;5022435;28;20288;-79
2022/03/22 07:00:52;;;;;;;40.67;23.10;;;;;;;8.06;75.60;103114.63;5022647;28;20021;-79
2022/03/22 07:03:17;;;;;;;41.83;23.02;;;;;;;8.38;74.38;103116.84;5022690;28;20316;-79
2022/03/22 07:05:45;;;;;;;43.08;24.50;;;;;;;8.68;73.23;103119.78;5035921;28;20017;-79
2022/03/22 07:08:11;;;;;;;42.88;24.30;;;;;;;9.08;72.03;103122.50;5021337;28;20052;-83
2022/03/22 07:10:36;;;;;;;43.22;23.95;;;;;;;9.49;70.17;103119.09;5022620;28;20030;-83
2022/03/22 07:13:06;;;;;;;40.67;22.95;;;;;;;9.94;69.06;103121.94;5022622;28;20060;-83
2022/03/22 07:15:35;;;;;;;39.33;23.02;;;;;;;10.47;67.45;103115.66;5022063;28;20022;-83
2022/03/22 07:18:02;;;;;;;42.97;23.75;;;;;;;10.94;65.63;103125.41;5020967;28;20030;-83
2022/03/22 07:20:28;;;;;;;45.05;24.58;;;;;;;11.18;64.12;103130.28;5022741;28;20049;-83
2022/03/22 07:22:53;;;;;;;41.28;22.98;;;;;;;11.43;64.19;103129.06;5022320;28;20678;-83
2022/03/22 07:25:19;;;;;;;41.53;23.92;;;;;;;11.76;63.59;103116.09;5021067;28;20041;-83
2022/03/22 07:27:46;;;;;;;40.22;23.30;;;;;;;12.10;60.92;103120.59;5020899;28;20253;-83
2022/03/22 07:30:12;;;;;;;45.58;24.55;;;;;;;12.35;61.05;103121.09;5021948;28;20173;-83
2022/03/22 07:32:43;;;;;;;43.42;24.77;;;;;;;12.89;59.44;103120.38;5022612;28;20093;-83
2022/03/22 07:35:10;;;;;;;46.70;25.52;;;;;;;13.52;56.69;103125.22;5022031;28;20026;-83
2022/03/22 07:37:36;;;;;;;41.08;23.85;;;;;;;13.91;55.96;103127.94;5022310;28;20029;-80
2022/03/22 07:40:04;;;;;;;41.58;25.17;;;;;;;13.93;54.77;103120.13;5022393;28;20316;-80
2022/03/22 07:42:30;;;;;;;41.78;24.75;;;;;;;13.76;55.38;103120.25;5021882;28;20032;-80
2022/03/22 07:45:02;;;;;;;38.70;24.38;;;;;;;13.88;55.62;103123.44;5021943;28;20054;-80
2022/03/22 07:47:28;;;;;;;47.00;25.48;;;;;;;14.00;54.80;103125.72;5022363;28;20053;-80
2022/03/22 07:55:22;;;;;;;44.97;25.40;;;;;;;12.55;58.52;103126.47;5017724;28;20299;-80
2022/03/22 07:57:48;;;;;;;46.38;26.83;;;;;;;12.16;59.19;103129.66;5021903;28;20046;-80
2022/03/22 08:00:14;;;;;;;44.47;26.10;;;;;;;11.87;60.28;103133.25;5020390;28;20176;-79
2022/03/22 08:02:51;;;;;;;45.28;27.17;;;;;;;11.66;61.15;103140.81;5021009;28;20026;-79
2022/03/22 08:05:16;;;;;;;46.03;27.40;;;;;;;11.47;62.29;103133.63;5017376;28;20101;-80
2022/03/22 08:07:41;;;;;;;46.42;27.23;;;;;;;11.38;62.78;103138.34;5025319;28;20271;-80
2022/03/22 08:10:07;;;;;;;48.47;27.17;;;;;;;11.33;63.13;103139.81;5025649;28;20312;-80
2022/03/22 08:12:32;;;;;;;48.60;27.88;;;;;;;11.29;62.10;103136.09;5032858;28;20060;-80
2022/03/22 08:14:57;;;;;;;47.70;26.42;;;;;;;11.28;62.92;103134.31;5022844;28;20272;-80
2022/03/22 08:17:23;;;;;;;55.08;28.30;;;;;;;11.30;64.08;103128.34;5025767;28;20030;-80
2022/03/22 08:19:49;;;;;;;46.05;27.88;;;;;;;11.31;63.83;103140.63;5025932;28;20219;-80
2022/03/22 08:22:14;;;;;;;51.30;26.55;;;;;;;11.35;63.16;103144.28;5025718;28;20033;-80
2022/03/22 08:24:39;;;;;;;45.22;26.63;;;;;;;11.39;62.57;103143.66;5025766;28;20061;-80
2022/03/22 08:27:07;;;;;;;51.55;27.23;;;;;;;11.44;62.84;103146.53;5023739;28;20364;-80
2022/03/22 08:29:34;;;;;;;43.50;25.52;;;;;;;11.48;61.74;103145.88;5023450;28;20088;-80
2022/03/22 08:31:59;;;;;;;49.47;26.73;;;;;;;11.54;62.93;103148.84;5024420;28;20327;-80
2022/03/22 08:34:24;;;;;;;45.70;26.55;;;;;;;11.62;62.02;103141.47;5023707;28;20029;-80
2022/03/22 08:36:50;;;;;;;43.67;24.83;;;;;;;11.67;61.36;103137.38;5021656;28;20092;-80
2022/03/22 08:39:15;;;;;;;46.50;26.17;;;;;;;11.73;61.17;103142.97;5020208;28;20045;-80
2022/03/22 08:41:40;;;;;;;47.58;27.00;;;;;;;11.80;60.44;103134.66;5019541;28;20094;-80
2022/03/22 08:44:05;;;;;;;49.20;27.08;;;;;;;11.89;60.74;103133.34;5020431;28;20270;-80
2022/03/22 08:46:31;;;;;;;45.95;26.05;;;;;;;11.98;60.15;103140.00;5023352;28;20044;-80
2022/03/22 08:48:56;;;;;;;46.00;25.90;;;;;;;12.08;61.10;103146.66;5023328;28;20034;-80
2022/03/22 08:51:25;;;;;;;46.08;25.80;;;;;;;12.16;61.05;103139.22;5024538;28;20053;-81
2022/03/22 08:53:54;;;;;;;45.42;26.50;;;;;;;12.25;59.56;103137.13;5025497;28;20081;-81
2022/03/22 08:56:22;;;;;;;46.17;25.73;;;;;;;12.34;59.91;103139.31;5033494;28;20184;-81
2022/03/22 08:58:50;;;;;;;45.33;25.70;;;;;;;12.44;58.85;103136.38;5024042;28;20057;-80
2022/03/22 09:01:15;;;;;;;45.80;25.40;;;;;;;12.54;58.52;103142.97;5023402;28;20144;-80
2022/03/22 09:03:40;;;;;;;44.15;25.55;;;;;;;12.60;58.32;103138.09;5024310;28;20026;-80
2022/03/22 09:06:09;;;;;;;43.50;26.00;;;;;;;12.68;57.53;103136.75;5023019;28;20022;-80
2022/03/22 09:08:36;;;;;;;43.67;26.40;;;;;;;12.77;57.95;103143.28;5022538;28;20339;-80
2022/03/22 09:11:01;;;;;;;46.33;25.77;;;;;;;12.85;57.18;103137.63;5024997;28;20022;-80
2022/03/22 09:13:28;;;;;;;43.72;25.55;;;;;;;12.95;56.65;103133.75;5025027;28;20084;-80
2022/03/22 09:15:54;;;;;;;46.03;26.00;;;;;;;13.03;55.42;103136.75;5024521;28;20312;-80
2022/03/22 09:18:22;;;;;;;41.03;25.35;;;;;;;13.10;56.75;103137.97;5024384;28;20092;-81
2022/03/22 09:20:49;;;;;;;41.63;27.00;;;;;;;13.16;55.15;103133.91;5023301;28;20149;-81
2022/03/22 09:23:15;;;;;;;41.00;25.85;;;;;;;13.23;55.80;103135.13;5024776;28;20153;-81
2022/03/22 09:25:42;;;;;;;38.65;25.52;;;;;;;13.31;55.03;103138.13;5022491;28;20068;-81
2022/03/22 09:28:08;;;;;;;44.42;26.17;;;;;;;13.39;53.38;103129.84;5022946;28;20195;-81
2022/03/22 09:30:34;;;;;;;40.88;25.95;;;;;;;13.48;54.57;103132.03;5022217;28;20050;-81
2022/03/22 09:33:02;;;;;;;41.15;26.13;;;;;;;13.57;52.56;103128.97;5022048;28;20022;-81
2022/03/22 09:35:28;;;;;;;42.55;25.88;;;;;;;13.67;53.74;103132.91;5022273;28;20385;-81
2022/03/22 09:37:53;;;;;;;44.35;26.30;;;;;;;13.78;51.66;103130.81;5024000;28;20026;-81
2022/03/22 09:40:19;;;;;;;41.22;25.35;;;;;;;13.84;52.44;103124.13;5025792;28;20018;-81
2022/03/22 09:42:46;;;;;;;43.75;24.80;;;;;;;13.89;51.39;103132.22;5032733;28;20112;-81
2022/03/22 09:45:14;;;;;;;40.80;24.02;;;;;;;13.96;51.66;103123.81;5024026;28;20053;-75
2022/03/22 09:47:42;;;;;;;39.00;24.48;;;;;;;14.04;50.91;103127.66;5023933;28;20029;-75
2022/03/22 09:50:08;;;;;;;42.15;25.48;;;;;;;14.12;51.32;103122.78;5023645;28;20026;-75
2022/03/22 09:52:37;;;;;;;42.35;25.33;;;;;;;14.19;50.14;103119.63;5024619;28;20031;-75
2022/03/22 09:55:06;;;;;;;44.47;24.67;;;;;;;14.27;51.42;103122.59;5024702;28;20032;-75
2022/03/22 09:57:31;;;;;;;42.70;23.98;;;;;;;14.37;49.79;103116.91;5023355;28;20265;-74
2022/03/22 09:59:57;;;;;;;38.60;23.60;;;;;;;14.45;50.19;103114.63;5023466;28;20025;-74
2022/03/22 10:02:32;;;;;;;41.75;23.77;;;;;;;14.57;51.18;103125.69;5022475;28;20291;-75
2022/03/22 10:04:58;;;;;;;39.15;23.83;;;;;;;14.64;49.50;103121.59;5022969;28;20022;-74
2022/03/22 10:07:24;;;;;;;37.85;23.20;;;;;;;14.69;48.81;103114.84;5022411;28;20173;-74
2022/03/22 10:10:02;;;;;;;40.03;23.67;;;;;;;14.74;48.87;103117.66;5022630;28;20120;-75
2022/03/22 10:12:38;;;;;;;39.60;24.27;;;;;;;14.80;48.51;103112.66;5022881;28;20085;-74
2022/03/22 10:15:08;;;;;;;37.78;23.42;;;;;;;14.87;47.94;103113.84;5024182;28;20137;-74
2022/03/22 10:17:34;;;;;;;38.58;23.73;;;;;;;14.93;48.41;103111.47;5023969;28;20034;-73
2022/03/22 10:19:59;;;;;;;40.13;23.45;;;;;;;15.01;46.48;103115.31;5024360;28;20033;-73
2022/03/22 10:22:27;;;;;;;38.97;23.67;;;;;;;15.09;47.29;103103.41;5023892;28;20184;-73
2022/03/22 10:24:56;;;;;;;38.80;23.83;;;;;;;15.17;47.10;103103.72;5024316;28;20197;-73
2022/03/22 10:27:34;;;;;;;39.70;24.23;;;;;;;15.24;48.04;103111.00;5022273;28;20057;-73
2022/03/22 10:30:03;;;;;;;37.13;22.70;;;;;;;15.28;46.92;103107.69;5022189;28;20080;-73
2022/03/22 10:32:33;;;;;;;39.83;22.85;;;;;;;15.37;46.84;103101.91;5036174;28;20089;-73
2022/03/22 10:35:20;;;;;;;37.58;23.42;;;;;;;15.46;46.99;103102.25;5024004;28;20276;-73
2022/03/22 10:37:47;;;;;;;42.03;23.10;;;;;;;15.58;47.38;103103.56;5022918;28;20041;-73
2022/03/22 10:40:27;;;;;;;42.22;22.98;;;;;;;15.65;47.48;103098.59;5022714;28;20260;-73
2022/03/22 10:42:58;;;;;;;37.72;22.85;;;;;;;15.75;46.03;103094.59;5023745;28;20045;-73
2022/03/22 10:45:25;;;;;;;36.63;22.55;;;;;;;15.84;45.34;103090.59;5023951;28;20022;-73
2022/03/22 10:47:50;;;;;;;38.90;22.95;;;;;;;15.91;45.15;103084.72;5023885;28;20268;-74
2022/03/22 10:50:16;;;;;;;37.10;21.67;;;;;;;16.02;45.60;103087.75;5023682;28;20314;-74
2022/03/22 10:52:48;;;;;;;37.38;22.83;;;;;;;16.09;46.50;103092.38;5023436;28;20264;-74
2022/03/22 10:55:19;;;;;;;39.67;24.40;;;;;;;16.19;46.40;103091.00;5023465;28;20026;-75
2022/03/22 10:57:47;;;;;;;38.03;22.75;;;;;;;16.25;42.11;103093.84;5032211;28;20049;-74
2022/03/22 11:00:13;;;;;;;41.15;23.60;;;;;;;16.32;44.99;103095.84;5027586;28;20032;-75
2022/03/22 11:02:40;;;;;;;37.80;23.40;;;;;;;16.40;43.90;103097.03;5023315;28;20029;-74
2022/03/22 11:05:07;;;;;;;39.40;22.42;;;;;;;16.43;42.42;103085.72;5023269;28;20033;-74
2022/03/22 11:07:37;;;;;;;36.80;22.33;;;;;;;16.47;41.53;103092.91;5023044;28;20121;-74
2022/03/22 11:10:04;;;;;;;40.05;22.58;;;;;;;16.50;42.13;103088.63;5022965;28;20056;-74
2022/03/22 11:12:30;;;;;;;39.03;22.02;;;;;;;16.57;41.87;103089.75;5023353;28;20189;-75
2022/03/22 11:14:57;;;;;;;36.47;21.88;;;;;;;16.61;41.23;103085.47;5023247;28;20287;-74
2022/03/22 11:17:25;;;;;;;35.65;21.48;;;;;;;16.66;41.25;103084.78;5023262;28;20247;-74
2022/03/22 11:19:51;;;;;;;38.72;22.70;;;;;;;16.71;41.23;103074.41;5023276;28;20261;-75
2022/03/22 11:22:17;;;;;;;38.15;22.67;;;;;;;16.79;42.74;103075.56;5022897;28;20028;-74
2022/03/22 11:24:43;;;;;;;37.75;22.92;;;;;;;16.85;42.38;103081.03;5023153;28;20034;-75
2022/03/22 11:27:09;;;;;;;37.17;21.40;;;;;;;16.91;41.46;103074.22;5036026;28;20191;-74
2022/03/22 11:29:38;;;;;;;37.40;21.95;;;;;;;16.97;42.33;103082.31;5023166;28;20053;-75
2022/03/22 11:34:57;;;;;;;38.22;23.95;;;;;;;17.16;43.33;103065.38;5022757;28;20318;-74
2022/03/22 11:37:33;;;;;;;42.13;22.50;;;;;;;17.25;41.54;103067.41;5023547;28;20021;-74